Yahata Maru — JL6477 — position and weather

sailwx.info

Track history (hours):
 
Tides and Currents Weather Stations Pressure Air Temp Water Temp Dewpoint Dewpoint Depression Visibility Wind Speed Wind Dir Waves Ship Positions

Yahata Maru

Last reported at 2016-May-28 20:27 UTC. Time now 2016-May-29 07:45 UTC.
Position N 34°34' E 134°46'.

Length 149 m; draft 4.7 m.

Type: Other ship. MMSI: 431400594.

Date/timePositionNaut miles runAvg speedWind from/ knotsBaromVisibWave heightAir tempDewpointWater temp
2016-May-28 20:27N 34°34' E 134°46'9 9.6
2016-May-28 19:33N 34°37' E 134°56'10 9.6
2016-May-28 18:33N 34°37' E 135°07'9 9.0
2016-May-28 17:33N 34°39' E 135°18'4 4.4
2016-May-28 16:33N 34°43' E 135°21'0 0.0
2016-May-28 15:33N 34°43' E 135°21'0 0.0
2016-May-28 14:33N 34°43' E 135°21'0 0.0
2016-May-28 13:33N 34°43' E 135°21'0 0.0
2016-May-28 12:33N 34°43' E 135°21'0 0.0
2016-May-28 11:33N 34°43' E 135°21'0 0.0
2016-May-28 10:33N 34°43' E 135°21'0 0.0
2016-May-28 09:33N 34°43' E 135°21'5 5.3
2016-May-28 08:33N 34°38' E 135°20'5 5.0
2016-May-28 07:33N 34°35' E 135°26'0 0.0
2016-May-28 06:33N 34°35' E 135°26'6 6.2
2016-May-28 05:33N 34°33' E 135°18'10 9.7
2016-May-28 04:33N 34°27' E 135°10'10 9.9
2016-May-28 03:33N 34°19' E 135°02'10 9.4
2016-May-28 02:32N 34°10' E 135°00'226 5.5
2016-May-26 09:31N 35°01' E 139°28'8 8.4
2016-May-26 08:33N 35°05' E 139°36'9 8.8
2016-May-26 07:33N 35°11' E 139°44'7 7.2
2016-May-26 06:33N 35°18' E 139°44'8 8.3
2016-May-26 05:33N 35°26' E 139°43'2 2.0
2016-May-26 04:32N 35°28' E 139°43'0 0.0
2016-May-26 03:32N 35°28' E 139°43'0 0.1
2016-May-26 02:34N 35°28' E 139°43'7 6.5
2016-May-26 01:34N 35°29' E 139°50'9 9.5
2016-May-26 00:33N 35°33' E 140°01'5 4.5
2016-May-25 23:34N 35°33' E 140°07'0 0.0
2016-May-25 22:16N 35°33' E 140°07'0 0.0
2016-May-25 21:16N 35°33' E 140°07'0 0.0
2016-May-25 20:19N 35°33' E 140°07'0 0.0
2016-May-25 19:25N 35°33' E 140°07'0 0.0
2016-May-25 18:22N 35°33' E 140°07'0 0.0
2016-May-25 17:28N 35°33' E 140°07'0 0.0
2016-May-25 16:28N 35°33' E 140°07'0 0.0
2016-May-25 15:31N 35°33' E 140°07'0 0.0
2016-May-25 14:31N 35°33' E 140°07'0 0.0
2016-May-25 13:16N 35°33' E 140°07'0 0.0
2016-May-25 12:28N 35°33' E 140°07'0 0.0
2016-May-25 11:31N 35°33' E 140°07'0 0.0
2016-May-25 10:31N 35°33' E 140°07'5 5.1
2016-May-25 09:33N 35°33' E 140°01'9 9.4
2016-May-25 08:33N 35°28' E 139°51'10 9.5
2016-May-25 07:33N 35°23' E 139°41'2 1.9
2016-May-25 06:32N 35°23' E 139°38'0 0.0
2016-May-25 05:32N 35°23' E 139°38'0 0.0
2016-May-25 04:32N 35°23' E 139°38'2 1.7
2016-May-25 03:34N 35°24' E 139°40'3 3.3
2016-May-25 02:31N 35°22' E 139°44'0 0.0
2016-May-25 01:31N 35°22' E 139°44'0 0.0
2016-May-25 00:31N 35°22' E 139°44'0 0.1
2016-May-24 23:31N 35°22' E 139°44'4 4.0
2016-May-24 22:33N 35°18' E 139°45'9 8.7
2016-May-24 21:33N 35°09' E 139°46'9 9.1
2016-May-24 20:32N 35°02' E 139°39'58 9.2
2016-May-24 14:10N 34°33' E 138°37'  
2016-May-20 20:27N 34°33' E 134°46'9 9.6
2016-May-20 19:32N 34°37' E 134°56'7 7.4
2016-May-20 18:33N 34°36' E 135°05'9 9.1
2016-May-20 17:33N 34°38' E 135°16'7 6.7
2016-May-20 16:33N 34°43' E 135°21'0 0.1
2016-May-20 15:22N 34°43' E 135°21'0 0.0
2016-May-20 14:28N 34°43' E 135°21'0 0.0
2016-May-20 13:33N 34°43' E 135°21'2 1.5
2016-May-20 12:30N 34°42' E 135°21'0 0.0
2016-May-20 11:30N 34°42' E 135°21'0 0.0
2016-May-20 10:30N 34°42' E 135°21'5 4.8
2016-May-20 09:33N 34°37' E 135°20'5 4.7
2016-May-20 08:33N 34°35' E 135°26'0 0.2
2016-May-20 07:33N 34°35' E 135°25'5 5.4
2016-May-20 06:33N 34°34' E 135°19'9 8.5
2016-May-20 05:33N 34°28' E 135°12'9 9.0
2016-May-20 04:33N 34°22' E 135°04'7 7.3
2016-May-20 03:33N 34°15' E 134°60'8 8.4
2016-May-20 02:33N 34°07' E 135°00'  
Track history (hours):
 
Tides and Currents Weather Stations Pressure Air Temp Water Temp Dewpoint Dewpoint Depression Visibility Wind Speed Wind Dir Waves Ship Positions

Yahata Maru

Last reported at 2016-May-28 20:27 UTC. Time now 2016-May-29 07:45 UTC.
Position N 34°34' E 134°46'.

Length 149 m; draft 4.7 m.

Type: Other ship. MMSI: 431400594.

Date/timePositionNaut miles runAvg speedWind from/ knotsBaromVisibWave heightAir tempDewpointWater temp
2016-May-28 20:27N 34°34' E 134°46'9 9.6
2016-May-28 19:33N 34°37' E 134°56'10 9.6
2016-May-28 18:33N 34°37' E 135°07'9 9.0
2016-May-28 17:33N 34°39' E 135°18'4 4.4
2016-May-28 16:33N 34°43' E 135°21'0 0.0
2016-May-28 15:33N 34°43' E 135°21'0 0.0
2016-May-28 14:33N 34°43' E 135°21'0 0.0
2016-May-28 13:33N 34°43' E 135°21'0 0.0
2016-May-28 12:33N 34°43' E 135°21'0 0.0
2016-May-28 11:33N 34°43' E 135°21'0 0.0
2016-May-28 10:33N 34°43' E 135°21'0 0.0
2016-May-28 09:33N 34°43' E 135°21'5 5.3
2016-May-28 08:33N 34°38' E 135°20'5 5.0
2016-May-28 07:33N 34°35' E 135°26'0 0.0
2016-May-28 06:33N 34°35' E 135°26'6 6.2
2016-May-28 05:33N 34°33' E 135°18'10 9.7
2016-May-28 04:33N 34°27' E 135°10'10 9.9
2016-May-28 03:33N 34°19' E 135°02'10 9.4
2016-May-28 02:32N 34°10' E 135°00'226 5.5
2016-May-26 09:31N 35°01' E 139°28'8 8.4
2016-May-26 08:33N 35°05' E 139°36'9 8.8
2016-May-26 07:33N 35°11' E 139°44'7 7.2
2016-May-26 06:33N 35°18' E 139°44'8 8.3
2016-May-26 05:33N 35°26' E 139°43'2 2.0
2016-May-26 04:32N 35°28' E 139°43'0 0.0
2016-May-26 03:32N 35°28' E 139°43'0 0.1
2016-May-26 02:34N 35°28' E 139°43'7 6.5
2016-May-26 01:34N 35°29' E 139°50'9 9.5
2016-May-26 00:33N 35°33' E 140°01'5 4.5
2016-May-25 23:34N 35°33' E 140°07'0 0.0
2016-May-25 22:16N 35°33' E 140°07'0 0.0
2016-May-25 21:16N 35°33' E 140°07'0 0.0
2016-May-25 20:19N 35°33' E 140°07'0 0.0
2016-May-25 19:25N 35°33' E 140°07'0 0.0
2016-May-25 18:22N 35°33' E 140°07'0 0.0
2016-May-25 17:28N 35°33' E 140°07'0 0.0
2016-May-25 16:28N 35°33' E 140°07'0 0.0
2016-May-25 15:31N 35°33' E 140°07'0 0.0
2016-May-25 14:31N 35°33' E 140°07'0 0.0
2016-May-25 13:16N 35°33' E 140°07'0 0.0
2016-May-25 12:28N 35°33' E 140°07'0 0.0
2016-May-25 11:31N 35°33' E 140°07'0 0.0
2016-May-25 10:31N 35°33' E 140°07'5 5.1
2016-May-25 09:33N 35°33' E 140°01'9 9.4
2016-May-25 08:33N 35°28' E 139°51'10 9.5
2016-May-25 07:33N 35°23' E 139°41'2 1.9
2016-May-25 06:32N 35°23' E 139°38'0 0.0
2016-May-25 05:32N 35°23' E 139°38'0 0.0
2016-May-25 04:32N 35°23' E 139°38'2 1.7
2016-May-25 03:34N 35°24' E 139°40'3 3.3
2016-May-25 02:31N 35°22' E 139°44'0 0.0
2016-May-25 01:31N 35°22' E 139°44'0 0.0
2016-May-25 00:31N 35°22' E 139°44'0 0.1
2016-May-24 23:31N 35°22' E 139°44'4 4.0
2016-May-24 22:33N 35°18' E 139°45'9 8.7
2016-May-24 21:33N 35°09' E 139°46'9 9.1
2016-May-24 20:32N 35°02' E 139°39'58 9.2
2016-May-24 14:10N 34°33' E 138°37'  
2016-May-20 20:27N 34°33' E 134°46'9 9.6
2016-May-20 19:32N 34°37' E 134°56'7 7.4
2016-May-20 18:33N 34°36' E 135°05'9 9.1
2016-May-20 17:33N 34°38' E 135°16'7 6.7
2016-May-20 16:33N 34°43' E 135°21'0 0.1
2016-May-20 15:22N 34°43' E 135°21'0 0.0
2016-May-20 14:28N 34°43' E 135°21'0 0.0
2016-May-20 13:33N 34°43' E 135°21'2 1.5
2016-May-20 12:30N 34°42' E 135°21'0 0.0
2016-May-20 11:30N 34°42' E 135°21'0 0.0
2016-May-20 10:30N 34°42' E 135°21'5 4.8
2016-May-20 09:33N 34°37' E 135°20'5 4.7
2016-May-20 08:33N 34°35' E 135°26'0 0.2
2016-May-20 07:33N 34°35' E 135°25'5 5.4
2016-May-20 06:33N 34°34' E 135°19'9 8.5
2016-May-20 05:33N 34°28' E 135°12'9 9.0
2016-May-20 04:33N 34°22' E 135°04'7 7.3
2016-May-20 03:33N 34°15' E 134°60'8 8.4
2016-May-20 02:33N 34°07' E 135°00'  

Dump ship's entire track history